Montalba, TX (75853)

10:56 AM CST on December 18, 2014 (GMT -0600)
North Palestine | Change Station
CLOSE
Current Station
Personal Weather Station
Location: Palestine, TX
Elevation: 581 ft
Nearby Weather Stations

Elev 581 ft 31.84 °N, 95.65 °W | Updated 51 seconds ago

Fog
Fog
47.9 °F
Feels Like 48 °F
N
3.0
Wind Variable Wind from SE
Gusts 5.0 mph

Today
High -- | Low -- °F
--% Chance of Precip.
Yesterday
High -- | Low -- °F
Precip. -- in
7:17 AM 5:21 PM
Waning Crescent, 13% visible
Pressure 30.17 in
Visibility 2.5 miles
Clouds Overcast 400 ft
Windchill 48 °F
Dew Point 47 °F
Humidity 98%
Rainfall 0.00 in
Snow Depth Not available.
UV 1 out of 12
Pollen 8.20 out of 12
Air Quality Not available.
Flu Activity Not available.
METAR KPSN 181640Z AUTO 00000KT 2 1/2SM BR OVC004 09/08 A3017 RMK AO2 T00950091

More Conditions Fewer Conditions

Pressure 30.17 in
Visibility 2.5 miles
Clouds Overcast 400 ft
Windchill 48 °F
Dew Point 47 °F
Humidity 98%
Rainfall 0.00 in
Snow Depth Not available.
UV 1 out of 12
Pollen 8.20 out of 12
Air Quality Not available.
Flu Activity Not available.
METAR KPSN 181640Z AUTO 00000KT 2 1/2SM BR OVC004 09/08 A3017 RMK AO2 T00950091

More Conditions Fewer Conditions

Nowcast | as of 8:57 am CST on December 18, 2014

Areas of drizzle and fog will continue through the late morning hours as low level moisture remains entrenched across the area. Visibilities of 1-2 miles can be expected...with a few spots falling to around half a mile. Areas of fog and drizzle should gradually decrease through afternoon hours...however...low level clouds should remain through the rest of the day. The drizzle and low clouds should result in cooler conditions and temperatures will struggle to get out of the 40s and low 50s across most areas.

×

10-Day Weather Forecast

Almanac

Astronomy

Dec. 18, 2014 Rise Set
Actual Time
Civil Twilight
Nautical Twilight
Astronomical Twilight
Moon
Length of Visible Light
Length of Day
Tomorrow will be .
, % of the Moon is Illuminated

Today's Extremes

State Highs State Lows

Community

WunderPhotos

Upload Photos

1,778,960 photos uploaded!

WunderBlogs® & News

Nearby

Air Quality

  Air Quality AQ Index Pollutant
Not available.

Snow Depth

Station Depth Elevation

Earthquake Activity

City Distance Mag. Time & Date
Minimum magnitude displayed is 2.5.

Coastal Water Temperatures

Place Temperature

Nearby Weather Stations